Time;durP1;ratioP1;P1;durP2;ratioP2;P2;SDS_P1;SDS_P2;PMS_P1;PMS_P2;Temp;Humidity;BMP_temperature;BMP_pressure;BME280_temperature;BME280_humidity;BME280_pressure;Samples;Min_cycle;Max_cycle;Signal;HPM_P1;HPM_P2
2022/12/23 00:01:49;;;;;;;39.90;28.25;;;;;;;;;;6263077;28;20053;-76
2022/12/23 00:04:51;;;;;;;45.90;30.48;;;;;;;;;;6266173;28;20049;-77
2022/12/23 00:07:53;;;;;;;44.70;31.80;;;;;;;;;;6263779;28;20399;-75
2022/12/23 00:10:56;;;;;;;46.00;32.33;;;;;;;;;;6265057;28;20064;-77
2022/12/23 00:17:18;;;;;;;50.85;34.85;;;;;;;;;;6264003;28;20052;-76
2022/12/23 00:20:20;;;;;;;49.45;34.17;;;;;;;;;;6265253;28;20040;-76
2022/12/23 00:23:22;;;;;;;51.38;36.88;;;;;;;;;;6265759;28;20045;-73
2022/12/23 00:26:25;;;;;;;58.40;38.78;;;;;;;;;;6264112;28;20091;-75
2022/12/23 00:29:26;;;;;;;54.28;36.97;;;;;;;;;;6265244;28;20344;-71
2022/12/23 00:32:29;;;;;;;60.63;37.45;;;;;;;;;;6263439;28;20063;-74
2022/12/23 00:35:31;;;;;;;54.67;37.50;;;;;;;;;;6263432;28;20207;-74
2022/12/23 00:45:15;;;;;;;56.38;36.60;;;;;;;;;;6263679;28;20056;-74
2022/12/23 00:51:38;;;;;;;58.22;37.45;;;;;;;;;;6262433;28;20057;-76
2022/12/23 00:54:39;;;;;;;57.88;37.75;;;;;;;;;;6266766;28;20053;-73
2022/12/23 00:57:41;;;;;;;57.85;37.60;;;;;;;;;;6264090;28;20337;-76
2022/12/23 01:07:23;;;;;;;55.92;38.85;;;;;;;;;;6261245;28;20049;-76
2022/12/23 01:10:24;;;;;;;60.00;39.88;;;;;;;;;;6262277;28;20057;-73
2022/12/23 01:13:26;;;;;;;61.53;40.40;;;;;;;;;;6265689;28;20060;-76
2022/12/23 01:16:28;;;;;;;57.03;38.92;;;;;;;;;;6261954;28;20091;-76
2022/12/23 01:19:31;;;;;;;57.45;37.78;;;;;;;;;;6264766;28;20119;-71
2022/12/23 01:22:32;;;;;;;56.42;38.30;;;;;;;;;;6262565;28;20061;-71
2022/12/23 01:25:34;;;;;;;56.65;39.42;;;;;;;;;;6262388;28;20044;-76
2022/12/23 01:28:36;;;;;;;56.30;39.05;;;;;;;;;;6262236;28;20337;-76
2022/12/23 01:31:38;;;;;;;57.47;39.88;;;;;;;;;;6264002;28;20053;-75
2022/12/23 01:34:41;;;;;;;58.42;38.75;;;;;;;;;;6261992;28;20363;-76
2022/12/23 01:37:42;;;;;;;57.03;38.28;;;;;;;;;;6264656;28;20582;-75
2022/12/23 01:40:45;;;;;;;54.92;38.22;;;;;;;;;;6269808;28;20046;-75
2022/12/23 01:43:47;;;;;;;55.35;38.03;;;;;;;;;;6268223;28;20332;-75
2022/12/23 01:46:49;;;;;;;55.95;38.33;;;;;;;;;;6272040;28;20349;-75
2022/12/23 01:49:55;;;;;;;57.85;38.85;;;;;;;;;;6270056;28;20053;-75
2022/12/23 01:53:01;;;;;;;60.08;39.65;;;;;;;;;;6269402;28;20387;-73
2022/12/23 01:56:06;;;;;;;54.83;38.05;;;;;;;;;;6271531;28;20099;-75
2022/12/23 01:59:10;;;;;;;52.55;36.75;;;;;;;;;;6269739;28;20075;-74
2022/12/23 02:05:32;;;;;;;57.05;36.97;;;;;;;;;;6272445;28;20040;-74
2022/12/23 02:12:22;;;;;;;56.80;37.63;;;;;;;;;;6271310;28;21220;-77
2022/12/23 02:19:01;;;;;;;55.38;37.80;;;;;;;;;;6272865;28;20215;-73
2022/12/23 02:22:18;;;;;;;52.03;35.22;;;;;;;;;;6271491;28;20103;-76
2022/12/23 02:25:37;;;;;;;51.35;35.75;;;;;;;;;;6272498;28;20075;-74
2022/12/23 02:29:02;;;;;;;50.05;35.75;;;;;;;;;;6276301;28;20246;-74
2022/12/23 02:32:10;;;;;;;53.60;36.30;;;;;;;;;;6275651;28;20136;-75
2022/12/23 02:35:14;;;;;;;52.13;36.22;;;;;;;;;;6274317;28;20128;-74
2022/12/23 02:38:21;;;;;;;57.03;37.40;;;;;;;;;;6275808;28;20102;-73
2022/12/23 02:41:26;;;;;;;57.85;38.53;;;;;;;;;;6278485;28;20262;-74
2022/12/23 02:44:32;;;;;;;60.38;38.38;;;;;;;;;;6274278;28;20052;-73
2022/12/23 02:47:40;;;;;;;62.47;39.55;;;;;;;;;;6276416;28;20096;-73
2022/12/23 02:50:43;;;;;;;62.45;40.40;;;;;;;;;;6279884;28;20049;-74
2022/12/23 02:53:47;;;;;;;67.47;39.30;;;;;;;;;;6267846;28;20079;-76
2022/12/23 02:56:50;;;;;;;58.28;37.10;;;;;;;;;;6270150;28;20053;-76
2022/12/23 02:59:52;;;;;;;57.58;37.95;;;;;;;;;;6270559;28;20313;-77
2022/12/23 03:02:55;;;;;;;63.50;39.85;;;;;;;;;;6268510;28;20053;-77
2022/12/23 03:05:57;;;;;;;60.22;39.15;;;;;;;;;;6266140;28;20057;-77
2022/12/23 03:09:00;;;;;;;63.85;40.58;;;;;;;;;;6264317;28;20049;-76
2022/12/23 03:12:06;;;;;;;66.82;40.42;;;;;;;;;;6264535;28;20049;-77
2022/12/23 03:15:17;;;;;;;70.40;42.33;;;;;;;;;;6265181;28;20088;-76
2022/12/23 03:18:25;;;;;;;66.78;40.83;;;;;;;;;;6268731;28;20053;-75
2022/12/23 03:21:32;;;;;;;67.50;40.20;;;;;;;;;;6266110;28;20053;-76
2022/12/23 03:24:39;;;;;;;69.38;42.95;;;;;;;;;;6264656;28;20044;-75
2022/12/23 03:27:43;;;;;;;68.80;40.80;;;;;;;;;;6268256;28;20059;-77
2022/12/23 03:30:48;;;;;;;65.35;40.22;;;;;;;;;;6267646;28;20416;-76
2022/12/23 03:33:54;;;;;;;65.28;40.92;;;;;;;;;;6267705;28;20057;-76
2022/12/23 03:36:57;;;;;;;64.60;40.22;;;;;;;;;;6271565;28;20057;-75
2022/12/23 03:40:03;;;;;;;66.00;40.88;;;;;;;;;;6264042;28;20057;-78
2022/12/23 03:43:09;;;;;;;67.93;41.33;;;;;;;;;;6266931;28;20060;-78
2022/12/23 03:46:16;;;;;;;67.57;40.75;;;;;;;;;;6265153;28;20049;-74
2022/12/23 03:49:23;;;;;;;73.03;40.38;;;;;;;;;;6264149;28;20071;-74
2022/12/23 03:52:29;;;;;;;71.18;41.60;;;;;;;;;;6266188;28;20424;-73
2022/12/23 03:55:32;;;;;;;67.47;40.80;;;;;;;;;;6267777;28;20321;-74
2022/12/23 03:58:37;;;;;;;67.75;39.72;;;;;;;;;;6267374;28;20091;-75
2022/12/23 04:01:59;;;;;;;64.70;40.05;;;;;;;;;;6264890;28;20115;-75
2022/12/23 04:05:16;;;;;;;63.38;39.88;;;;;;;;;;6265570;28;20080;-73
2022/12/23 04:08:20;;;;;;;64.43;40.63;;;;;;;;;;6265586;28;20244;-73
2022/12/23 04:11:22;;;;;;;60.83;39.70;;;;;;;;;;6266690;28;20142;-75
2022/12/23 04:14:24;;;;;;;68.20;41.13;;;;;;;;;;6267192;28;20244;-74
2022/12/23 04:17:26;;;;;;;65.30;39.95;;;;;;;;;;6267819;28;20071;-75
2022/12/23 04:20:29;;;;;;;63.10;39.72;;;;;;;;;;6266568;28;20241;-73
2022/12/23 04:23:30;;;;;;;70.45;39.45;;;;;;;;;;6268263;28;20053;-71
2022/12/23 04:26:32;;;;;;;67.95;40.15;;;;;;;;;;6266545;28;20392;-75
2022/12/23 04:29:34;;;;;;;66.60;38.78;;;;;;;;;;6267501;28;20423;-74
2022/12/23 04:32:36;;;;;;;64.43;39.90;;;;;;;;;;6264056;28;20276;-74
2022/12/23 04:35:39;;;;;;;71.38;40.72;;;;;;;;;;6263506;28;20092;-72
2022/12/23 04:38:42;;;;;;;69.18;38.92;;;;;;;;;;6265641;28;20065;-75
2022/12/23 04:41:44;;;;;;;66.78;41.35;;;;;;;;;;6266793;28;20052;-75
2022/12/23 04:44:45;;;;;;;63.60;39.55;;;;;;;;;;6262734;28;20056;-75
2022/12/23 04:47:47;;;;;;;67.70;39.22;;;;;;;;;;6266561;28;20060;-74
2022/12/23 04:50:50;;;;;;;70.00;40.75;;;;;;;;;;6263680;28;20268;-74
2022/12/23 04:53:52;;;;;;;76.70;40.08;;;;;;;;;;6265055;28;20052;-75
2022/12/23 04:56:53;;;;;;;73.97;41.10;;;;;;;;;;6266000;28;20103;-74
2022/12/23 04:59:55;;;;;;;75.35;41.40;;;;;;;;;;6264921;28;20061;-72
2022/12/23 05:02:57;;;;;;;70.35;40.47;;;;;;;;;;6268393;28;20052;-75
2022/12/23 05:06:00;;;;;;;69.65;40.53;;;;;;;;;;6264324;28;20060;-71
2022/12/23 05:09:02;;;;;;;66.63;40.53;;;;;;;;;;6266002;28;20244;-75
2022/12/23 05:12:04;;;;;;;71.22;39.42;;;;;;;;;;6265529;28;20056;-75
2022/12/23 05:15:07;;;;;;;67.75;39.83;;;;;;;;;;6263100;28;20060;-74
2022/12/23 05:18:08;;;;;;;67.10;39.45;;;;;;;;;;6262668;28;20037;-74
2022/12/23 05:21:11;;;;;;;65.88;39.35;;;;;;;;;;6267910;28;20507;-74
2022/12/23 05:24:13;;;;;;;72.97;40.30;;;;;;;;;;6262854;28;20140;-74
2022/12/23 05:27:14;;;;;;;72.18;39.35;;;;;;;;;;6265488;28;20152;-75
2022/12/23 05:30:16;;;;;;;66.43;38.22;;;;;;;;;;6262727;28;20213;-75
2022/12/23 05:33:18;;;;;;;67.15;39.05;;;;;;;;;;6264601;28;20053;-75
2022/12/23 05:36:21;;;;;;;64.25;38.92;;;;;;;;;;6265782;28;20112;-74
2022/12/23 05:39:22;;;;;;;64.50;37.67;;;;;;;;;;6260424;28;20045;-72
2022/12/23 05:42:24;;;;;;;70.32;39.05;;;;;;;;;;6263823;28;20041;-74
2022/12/23 05:45:26;;;;;;;65.55;37.92;;;;;;;;;;6264736;28;22640;-74
2022/12/23 05:48:27;;;;;;;64.93;38.97;;;;;;;;;;6264612;28;20060;-75
2022/12/23 05:51:30;;;;;;;66.85;38.90;;;;;;;;;;6264320;28;20049;-75
2022/12/23 05:54:32;;;;;;;64.53;39.35;;;;;;;;;;6266638;28;20041;-74
2022/12/23 05:57:34;;;;;;;65.32;39.55;;;;;;;;;;6263730;28;20098;-74
2022/12/23 06:00:35;;;;;;;69.03;39.28;;;;;;;;;;6263299;28;20064;-74
2022/12/23 06:03:37;;;;;;;68.20;38.65;;;;;;;;;;6264632;28;20077;-74
2022/12/23 06:06:40;;;;;;;69.75;39.17;;;;;;;;;;6261751;28;20052;-74
2022/12/23 06:09:41;;;;;;;71.30;39.90;;;;;;;;;;6261783;28;20053;-76
2022/12/23 06:12:43;;;;;;;71.72;38.42;;;;;;;;;;6264528;28;20044;-76
2022/12/23 06:15:45;;;;;;;75.88;41.75;;;;;;;;;;6263852;28;20053;-76
2022/12/23 06:18:47;;;;;;;72.65;39.17;;;;;;;;;;6266184;28;21340;-75
2022/12/23 06:21:50;;;;;;;72.03;39.05;;;;;;;;;;6264190;28;20049;-75
2022/12/23 06:24:51;;;;;;;72.45;40.17;;;;;;;;;;6266314;28;20053;-75
2022/12/23 06:27:53;;;;;;;70.95;41.65;;;;;;;;;;6263228;28;20407;-73
2022/12/23 06:30:55;;;;;;;74.00;41.58;;;;;;;;;;6268593;28;20061;-73
2022/12/23 06:33:57;;;;;;;75.15;40.60;;;;;;;;;;6267808;28;20119;-75
2022/12/23 06:37:00;;;;;;;73.75;40.75;;;;;;;;;;6267197;28;20272;-75
2022/12/23 06:40:02;;;;;;;74.40;40.67;;;;;;;;;;6268103;28;20056;-73
2022/12/23 06:43:03;;;;;;;74.38;40.38;;;;;;;;;;6268574;28;20068;-72
2022/12/23 06:46:05;;;;;;;70.32;39.38;;;;;;;;;;6265982;28;20106;-75
2022/12/23 06:49:07;;;;;;;70.78;38.63;;;;;;;;;;6268478;28;20049;-76
2022/12/23 06:52:10;;;;;;;70.88;40.65;;;;;;;;;;6266100;28;20255;-75
2022/12/23 06:55:12;;;;;;;70.57;39.27;;;;;;;;;;6265531;28;20045;-75
2022/12/23 06:58:14;;;;;;;68.75;38.55;;;;;;;;;;6267177;28;20060;-74
2022/12/23 07:01:15;;;;;;;74.82;40.38;;;;;;;;;;6269673;28;20053;-76
2022/12/23 07:04:17;;;;;;;73.05;40.17;;;;;;;;;;6269107;28;20348;-75
2022/12/23 07:07:20;;;;;;;80.68;41.45;;;;;;;;;;6271283;28;20056;-73
2022/12/23 07:10:22;;;;;;;70.43;40.75;;;;;;;;;;6268499;28;20044;-76
2022/12/23 07:13:23;;;;;;;69.07;39.88;;;;;;;;;;6266530;28;20049;-75
2022/12/23 07:16:25;;;;;;;68.97;40.05;;;;;;;;;;6267733;28;20067;-72
2022/12/23 07:19:27;;;;;;;65.50;40.20;;;;;;;;;;6266858;28;20107;-75
2022/12/23 07:22:30;;;;;;;74.22;43.08;;;;;;;;;;6269386;28;20049;-76
2022/12/23 07:25:31;;;;;;;68.63;40.17;;;;;;;;;;6265339;28;20049;-74
2022/12/23 07:28:33;;;;;;;72.75;41.53;;;;;;;;;;6266618;28;20088;-75
2022/12/23 07:31:34;;;;;;;73.40;40.78;;;;;;;;;;6267630;28;20186;-75
2022/12/23 07:34:36;;;;;;;80.30;42.45;;;;;;;;;;6266514;28;20099;-75
2022/12/23 07:37:39;;;;;;;72.63;42.40;;;;;;;;;;6267050;28;20045;-75
2022/12/23 07:40:41;;;;;;;70.80;41.22;;;;;;;;;;6265388;28;20049;-75
2022/12/23 07:43:43;;;;;;;74.80;42.20;;;;;;;;;;6266198;28;20049;-75
2022/12/23 07:46:44;;;;;;;74.03;40.53;;;;;;;;;;6266241;28;21892;-75
2022/12/23 07:49:46;;;;;;;77.43;44.00;;;;;;;;;;6266839;28;20360;-75
2022/12/23 07:52:49;;;;;;;69.78;40.70;;;;;;;;;;6264646;28;20053;-76
2022/12/23 07:55:52;;;;;;;79.00;43.05;;;;;;;;;;6268062;28;20064;-76
2022/12/23 07:58:54;;;;;;;78.72;43.15;;;;;;;;;;6266666;28;20233;-75
2022/12/23 08:01:56;;;;;;;73.70;43.22;;;;;;;;;;6269914;28;20378;-76
2022/12/23 08:04:57;;;;;;;77.50;43.60;;;;;;;;;;6266045;28;20052;-76
2022/12/23 08:08:00;;;;;;;75.00;43.72;;;;;;;;;;6266756;28;20048;-73
2022/12/23 08:11:03;;;;;;;76.57;42.45;;;;;;;;;;6266117;28;20045;-75
2022/12/23 08:14:05;;;;;;;84.23;43.77;;;;;;;;;;6265328;28;20120;-75
2022/12/23 08:17:07;;;;;;;80.18;44.47;;;;;;;;;;6266488;28;20135;-77
2022/12/23 08:20:10;;;;;;;73.40;43.72;;;;;;;;;;6265454;28;20612;-75
2022/12/23 08:23:13;;;;;;;80.13;43.80;;;;;;;;;;6266153;28;20175;-75
2022/12/23 08:26:16;;;;;;;82.25;42.47;;;;;;;;;;6264331;28;20061;-76
2022/12/23 08:29:18;;;;;;;81.32;43.28;;;;;;;;;;6266635;28;20053;-75
2022/12/23 08:32:20;;;;;;;81.55;43.40;;;;;;;;;;6263579;28;20065;-73
2022/12/23 08:35:22;;;;;;;87.38;44.63;;;;;;;;;;6268583;28;20292;-76
2022/12/23 08:38:25;;;;;;;84.18;44.15;;;;;;;;;;6263972;28;20048;-77
2022/12/23 08:41:29;;;;;;;82.15;44.40;;;;;;;;;;6264979;28;20281;-76
2022/12/23 08:44:31;;;;;;;90.57;47.05;;;;;;;;;;6262505;28;20063;-77
2022/12/23 08:47:33;;;;;;;88.75;48.22;;;;;;;;;;6265284;28;20103;-75
2022/12/23 08:50:37;;;;;;;86.20;45.40;;;;;;;;;;6263088;28;20064;-76
2022/12/23 08:53:41;;;;;;;86.53;44.55;;;;;;;;;;6267177;28;20049;-73
2022/12/23 08:56:42;;;;;;;83.97;44.72;;;;;;;;;;6263037;28;20059;-76
2022/12/23 08:59:45;;;;;;;83.32;45.80;;;;;;;;;;6263469;28;20158;-78
2022/12/23 09:02:47;;;;;;;85.32;44.35;;;;;;;;;;6268054;28;20080;-73
2022/12/23 09:05:49;;;;;;;86.40;44.80;;;;;;;;;;6266717;28;20049;-79
2022/12/23 09:08:52;;;;;;;84.05;43.47;;;;;;;;;;6266144;28;20057;-80
2022/12/23 09:11:54;;;;;;;80.70;44.00;;;;;;;;;;6264725;28;20049;-78
2022/12/23 09:14:55;;;;;;;71.28;42.90;;;;;;;;;;6263513;28;20099;-79
2022/12/23 09:17:57;;;;;;;83.07;44.63;;;;;;;;;;6263392;28;20060;-73
2022/12/23 09:21:00;;;;;;;79.25;44.90;;;;;;;;;;6263436;28;20057;-79
2022/12/23 09:24:03;;;;;;;81.38;45.28;;;;;;;;;;6264703;28;20428;-78
2022/12/23 09:27:05;;;;;;;82.28;45.88;;;;;;;;;;6263734;28;20052;-79
2022/12/23 09:30:07;;;;;;;81.65;46.22;;;;;;;;;;6264240;28;20055;-76
2022/12/23 09:33:09;;;;;;;84.30;46.70;;;;;;;;;;6264663;28;20045;-74
2022/12/23 09:36:11;;;;;;;74.28;46.33;;;;;;;;;;6265469;28;20272;-74
2022/12/23 09:39:14;;;;;;;77.90;45.78;;;;;;;;;;6263670;28;20061;-76
2022/12/23 09:42:27;;;;;;;73.45;45.78;;;;;;;;;;6265156;28;20248;-77
2022/12/23 09:45:53;;;;;;;77.00;44.53;;;;;;;;;;6262229;28;20057;-77
2022/12/23 09:48:58;;;;;;;80.13;46.90;;;;;;;;;;6265401;28;20053;-77
2022/12/23 09:52:02;;;;;;;72.53;46.22;;;;;;;;;;6260485;28;20049;-77
2022/12/23 09:55:09;;;;;;;82.35;46.33;;;;;;;;;;6264537;28;20052;-77
2022/12/23 09:58:19;;;;;;;79.22;44.83;;;;;;;;;;6264225;28;20155;-77
2022/12/23 10:01:28;;;;;;;72.97;45.42;;;;;;;;;;6263499;28;20049;-77
2022/12/23 10:04:42;;;;;;;70.47;44.58;;;;;;;;;;6268840;28;20107;-77
2022/12/23 10:07:47;;;;;;;76.97;45.28;;;;;;;;;;6266840;28;20095;-77
2022/12/23 10:10:52;;;;;;;71.65;46.15;;;;;;;;;;6268584;28;20106;-76
2022/12/23 10:13:56;;;;;;;72.15;45.20;;;;;;;;;;6268982;28;20058;-76
2022/12/23 10:17:00;;;;;;;71.65;45.65;;;;;;;;;;6268085;28;20361;-76
2022/12/23 10:20:04;;;;;;;69.55;45.75;;;;;;;;;;6267594;28;20042;-76
2022/12/23 10:23:12;;;;;;;68.90;44.90;;;;;;;;;;6271824;28;20045;-77
2022/12/23 10:26:22;;;;;;;69.05;44.70;;;;;;;;;;6269953;28;20444;-76
2022/12/23 10:29:25;;;;;;;69.93;44.40;;;;;;;;;;6271779;28;20053;-77
2022/12/23 10:32:37;;;;;;;62.75;42.65;;;;;;;;;;6274045;28;20053;-77
2022/12/23 10:35:45;;;;;;;66.53;44.13;;;;;;;;;;6272618;28;20057;-77
2022/12/23 10:38:53;;;;;;;66.95;44.40;;;;;;;;;;6271898;28;20116;-77
2022/12/23 10:42:02;;;;;;;66.85;45.03;;;;;;;;;;6272635;28;20050;-77
2022/12/23 10:45:25;;;;;;;65.55;43.15;;;;;;;;;;6273213;28;20044;-77
2022/12/23 10:48:36;;;;;;;64.50;42.70;;;;;;;;;;6276234;28;20268;-77
2022/12/23 10:51:45;;;;;;;65.22;43.28;;;;;;;;;;6275579;28;20045;-77
2022/12/23 10:54:48;;;;;;;59.63;40.90;;;;;;;;;;6271691;28;20236;-77
2022/12/23 10:57:52;;;;;;;62.22;41.85;;;;;;;;;;6272963;28;20061;-75
2022/12/23 11:00:57;;;;;;;62.15;41.67;;;;;;;;;;6274667;28;20052;-77
2022/12/23 11:04:03;;;;;;;66.30;42.80;;;;;;;;;;6269170;28;20061;-77
2022/12/23 11:07:07;;;;;;;61.60;42.90;;;;;;;;;;6268935;28;21710;-76
2022/12/23 11:10:16;;;;;;;66.32;42.67;;;;;;;;;;6267174;28;20045;-76
2022/12/23 11:13:26;;;;;;;60.15;41.03;;;;;;;;;;6269210;28;20329;-78
2022/12/23 11:16:28;;;;;;;58.85;38.92;;;;;;;;;;6266091;28;20042;-77
2022/12/23 11:19:30;;;;;;;56.67;38.92;;;;;;;;;;6270598;28;20191;-73
2022/12/23 11:22:32;;;;;;;55.63;38.78;;;;;;;;;;6269660;28;20044;-72
2022/12/23 11:25:36;;;;;;;57.17;38.83;;;;;;;;;;6264895;28;20060;-75
2022/12/23 11:28:49;;;;;;;52.42;36.80;;;;;;;;;;6267035;28;20403;-77
2022/12/23 11:31:51;;;;;;;58.58;35.63;;;;;;;;;;6272543;28;20112;-77
2022/12/23 11:34:54;;;;;;;52.88;37.05;;;;;;;;;;6272196;28;20045;-77
2022/12/23 11:37:56;;;;;;;53.50;36.25;;;;;;;;;;6270845;28;20041;-77
2022/12/23 11:40:58;;;;;;;52.13;34.88;;;;;;;;;;6272078;28;20060;-77
2022/12/23 11:44:04;;;;;;;53.33;36.08;;;;;;;;;;6269691;28;20053;-77
2022/12/23 11:47:25;;;;;;;49.50;33.25;;;;;;;;;;6269673;28;20045;-78
2022/12/23 11:50:33;;;;;;;43.45;33.25;;;;;;;;;;6268649;28;20167;-77
2022/12/23 11:53:35;;;;;;;46.67;33.22;;;;;;;;;;6268232;28;20061;-77
2022/12/23 11:56:39;;;;;;;49.47;33.78;;;;;;;;;;6265108;28;20057;-77
2022/12/23 11:59:43;;;;;;;48.88;34.40;;;;;;;;;;6267735;28;20061;-76
2022/12/23 12:02:46;;;;;;;46.20;35.30;;;;;;;;;;6265172;28;20061;-77
2022/12/23 12:05:50;;;;;;;46.15;33.15;;;;;;;;;;6270489;28;20048;-75
2022/12/23 12:08:53;;;;;;;44.03;34.47;;;;;;;;;;6266203;28;20045;-76
2022/12/23 12:11:59;;;;;;;48.78;34.95;;;;;;;;;;6265079;28;20380;-77
2022/12/23 12:15:02;;;;;;;46.38;34.30;;;;;;;;;;6267878;28;20241;-77
2022/12/23 12:18:06;;;;;;;45.22;33.40;;;;;;;;;;6268232;28;20045;-77
2022/12/23 12:21:11;;;;;;;46.30;34.78;;;;;;;;;;6268756;28;20332;-77
2022/12/23 12:24:17;;;;;;;45.22;32.67;;;;;;;;;;6268932;28;20490;-76
2022/12/23 12:27:21;;;;;;;53.03;34.40;;;;;;;;;;6272356;28;20053;-73
2022/12/23 12:30:24;;;;;;;51.22;33.88;;;;;;;;;;6269747;28;20041;-76
2022/12/23 12:33:31;;;;;;;49.40;34.58;;;;;;;;;;6272879;28;20801;-72
2022/12/23 12:36:38;;;;;;;48.58;35.53;;;;;;;;;;6269674;28;20120;-76
2022/12/23 12:39:43;;;;;;;48.47;34.85;;;;;;;;;;6269286;28;20052;-77
2022/12/23 12:42:49;;;;;;;48.58;34.75;;;;;;;;;;6269141;28;20061;-77
2022/12/23 12:46:03;;;;;;;48.20;34.38;;;;;;;;;;6266618;28;20348;-77
2022/12/23 12:49:12;;;;;;;57.15;36.25;;;;;;;;;;6261711;28;20426;-76
2022/12/23 12:52:15;;;;;;;55.38;35.95;;;;;;;;;;6266322;28;20053;-73
2022/12/23 12:55:21;;;;;;;53.10;34.55;;;;;;;;;;6266178;28;20045;-77
2022/12/23 12:58:24;;;;;;;54.35;34.13;;;;;;;;;;6264082;28;20057;-76
2022/12/23 13:01:36;;;;;;;53.15;34.88;;;;;;;;;;6264558;28;20053;-79
2022/12/23 13:05:11;;;;;;;51.95;37.33;;;;;;;;;;6265682;28;20281;-76
2022/12/23 13:08:27;;;;;;;58.20;36.53;;;;;;;;;;6262242;28;20060;-76
2022/12/23 13:11:39;;;;;;;57.60;38.05;;;;;;;;;;6263350;28;20062;-76
2022/12/23 13:14:50;;;;;;;60.10;38.38;;;;;;;;;;6261693;28;20049;-78
2022/12/23 13:18:07;;;;;;;61.38;38.53;;;;;;;;;;6265370;28;20107;-78
2022/12/23 13:21:14;;;;;;;57.92;38.65;;;;;;;;;;6264853;28;20061;-75
2022/12/23 13:24:21;;;;;;;56.97;36.85;;;;;;;;;;6261672;28;20095;-77
2022/12/23 13:27:27;;;;;;;63.05;38.30;;;;;;;;;;6265793;28;20049;-78
2022/12/23 13:30:32;;;;;;;60.85;37.45;;;;;;;;;;6262140;28;20075;-79
2022/12/23 13:33:40;;;;;;;51.10;35.50;;;;;;;;;;6261127;28;20087;-82
2022/12/23 13:36:46;;;;;;;52.40;32.22;;;;;;;;;;6261561;28;20057;-79
2022/12/23 13:39:53;;;;;;;52.78;34.30;;;;;;;;;;6263321;28;20245;-78
2022/12/23 13:42:59;;;;;;;55.13;36.20;;;;;;;;;;6264178;28;20194;-77
2022/12/23 13:46:04;;;;;;;57.30;36.95;;;;;;;;;;6261500;28;20053;-80
2022/12/23 13:49:12;;;;;;;52.85;34.10;;;;;;;;;;6263669;28;20482;-79
2022/12/23 13:52:17;;;;;;;47.90;30.55;;;;;;;;;;6262503;28;20292;-79
2022/12/23 13:55:30;;;;;;;48.75;29.95;;;;;;;;;;6265009;28;20072;-77
2022/12/23 13:58:32;;;;;;;52.70;31.83;;;;;;;;;;6262822;28;20053;-78
2022/12/23 14:01:36;;;;;;;47.65;30.95;;;;;;;;;;6268343;28;20049;-78
2022/12/23 14:04:57;;;;;;;49.72;31.98;;;;;;;;;;6265692;28;20084;-80
2022/12/23 14:08:00;;;;;;;47.80;30.52;;;;;;;;;;6262973;28;20067;-79
2022/12/23 14:11:10;;;;;;;51.15;31.73;;;;;;;;;;6263525;28;20490;-80
2022/12/23 14:14:19;;;;;;;48.80;30.73;;;;;;;;;;6263213;28;20053;-77
2022/12/23 14:17:25;;;;;;;47.15;30.42;;;;;;;;;;6265518;28;20061;-78
2022/12/23 14:20:37;;;;;;;45.88;29.25;;;;;;;;;;6264463;28;20329;-79
2022/12/23 14:23:50;;;;;;;51.08;30.83;;;;;;;;;;6260801;28;20056;-78
2022/12/23 14:27:22;;;;;;;45.17;29.48;;;;;;;;;;6265962;28;20048;-76
2022/12/23 14:30:30;;;;;;;47.03;29.77;;;;;;;;;;6261774;28;20049;-78
2022/12/23 14:33:34;;;;;;;45.00;28.73;;;;;;;;;;6263479;28;20041;-78
2022/12/23 14:36:37;;;;;;;42.53;28.08;;;;;;;;;;6263414;28;20061;-78
2022/12/23 14:39:38;;;;;;;46.22;29.58;;;;;;;;;;6262159;28;21075;-76
2022/12/23 14:42:41;;;;;;;42.20;29.08;;;;;;;;;;6263975;28;20337;-76
2022/12/23 14:45:43;;;;;;;47.00;29.15;;;;;;;;;;6263384;28;20349;-77
2022/12/23 14:49:14;;;;;;;57.72;37.70;;;;;;;;;;6265427;28;20049;-77
2022/12/23 14:52:38;;;;;;;58.17;38.90;;;;;;;;;;6268852;28;20063;-77
2022/12/23 14:55:47;;;;;;;58.65;38.80;;;;;;;;;;6262970;28;20057;-78
2022/12/23 14:59:09;;;;;;;58.70;40.90;;;;;;;;;;6270355;28;20049;-78
2022/12/23 15:02:17;;;;;;;63.47;42.80;;;;;;;;;;6268809;28;20049;-73
2022/12/23 15:05:22;;;;;;;63.47;41.75;;;;;;;;;;6265808;28;20044;-78
2022/12/23 15:08:30;;;;;;;62.47;41.53;;;;;;;;;;6267861;28;20106;-74
2022/12/23 15:11:34;;;;;;;63.70;41.67;;;;;;;;;;6267882;28;20053;-77
2022/12/23 15:14:38;;;;;;;61.00;41.17;;;;;;;;;;6265726;28;20087;-78
2022/12/23 15:17:40;;;;;;;62.10;40.30;;;;;;;;;;6266264;28;20060;-78
2022/12/23 15:20:41;;;;;;;59.38;39.95;;;;;;;;;;6265573;28;20075;-78
2022/12/23 15:23:50;;;;;;;60.00;40.05;;;;;;;;;;6265342;28;20107;-77
2022/12/23 15:26:53;;;;;;;60.35;41.63;;;;;;;;;;6269853;28;20133;-76
2022/12/23 15:29:54;;;;;;;62.72;39.33;;;;;;;;;;6264308;28;20136;-76
2022/12/23 15:32:59;;;;;;;59.40;39.92;;;;;;;;;;6265962;28;20057;-75
2022/12/23 15:36:02;;;;;;;56.40;39.42;;;;;;;;;;6264740;28;20056;-78
2022/12/23 15:39:08;;;;;;;61.17;39.60;;;;;;;;;;6265647;28;20121;-75
2022/12/23 15:42:23;;;;;;;62.05;40.97;;;;;;;;;;6263614;28;20037;-76
2022/12/23 15:45:32;;;;;;;64.97;41.03;;;;;;;;;;6266780;28;20114;-76
2022/12/23 15:48:34;;;;;;;58.47;40.13;;;;;;;;;;6269620;28;20087;-78
2022/12/23 15:51:39;;;;;;;60.83;40.30;;;;;;;;;;6267550;28;20057;-78
2022/12/23 15:54:45;;;;;;;59.25;41.03;;;;;;;;;;6266190;28;20053;-73
2022/12/23 15:57:48;;;;;;;66.40;41.03;;;;;;;;;;6266746;28;20048;-76
2022/12/23 16:00:52;;;;;;;61.00;40.55;;;;;;;;;;6268155;28;20045;-77
2022/12/23 16:03:55;;;;;;;61.38;40.58;;;;;;;;;;6267239;28;20068;-78
2022/12/23 16:07:03;;;;;;;65.45;41.33;;;;;;;;;;6267790;28;20053;-77
2022/12/23 16:10:14;;;;;;;60.60;39.50;;;;;;;;;;6265782;28;20260;-78
2022/12/23 16:13:17;;;;;;;59.38;40.65;;;;;;;;;;6264062;28;20053;-77
2022/12/23 16:16:32;;;;;;;62.83;41.55;;;;;;;;;;6267236;28;20091;-78
2022/12/23 16:19:38;;;;;;;61.60;40.30;;;;;;;;;;6266432;28;20052;-77
2022/12/23 16:22:40;;;;;;;62.70;40.17;;;;;;;;;;6264876;28;20133;-77
2022/12/23 16:25:46;;;;;;;65.00;41.45;;;;;;;;;;6266616;28;20269;-78
2022/12/23 16:28:50;;;;;;;66.07;41.15;;;;;;;;;;6267849;28;20045;-78
2022/12/23 16:31:56;;;;;;;66.28;39.33;;;;;;;;;;6264986;28;20057;-78
2022/12/23 16:35:09;;;;;;;66.05;41.78;;;;;;;;;;6265837;28;20352;-75
2022/12/23 16:38:14;;;;;;;69.47;42.72;;;;;;;;;;6264429;28;20052;-77
2022/12/23 16:41:18;;;;;;;75.85;43.85;;;;;;;;;;6263786;28;20061;-78
2022/12/23 16:44:20;;;;;;;74.82;42.00;;;;;;;;;;6265449;28;20056;-77
2022/12/23 16:47:22;;;;;;;70.35;43.92;;;;;;;;;;6266896;28;20087;-77
2022/12/23 16:50:24;;;;;;;119.82;61.72;;;;;;;;;;6263577;28;20049;-77
2022/12/23 16:53:26;;;;;;;95.18;51.72;;;;;;;;;;6263411;28;20057;-77
2022/12/23 16:56:33;;;;;;;63.53;41.10;;;;;;;;;;6262708;28;20057;-77
2022/12/23 16:59:36;;;;;;;57.53;36.78;;;;;;;;;;6263738;28;20371;-77
2022/12/23 17:02:37;;;;;;;55.20;35.05;;;;;;;;;;6264938;28;20207;-77
2022/12/23 17:05:39;;;;;;;54.05;35.33;;;;;;;;;;6266290;28;20060;-75
2022/12/23 17:08:41;;;;;;;58.30;36.60;;;;;;;;;;6260425;28;20053;-77
2022/12/23 17:11:45;;;;;;;56.17;36.17;;;;;;;;;;6261988;28;20048;-73
2022/12/23 17:14:47;;;;;;;52.72;35.75;;;;;;;;;;6265895;28;20040;-77
2022/12/23 17:17:50;;;;;;;56.58;36.13;;;;;;;;;;6263572;28;20046;-77
2022/12/23 17:20:52;;;;;;;56.80;37.75;;;;;;;;;;6265206;28;20146;-78
2022/12/23 17:23:56;;;;;;;60.10;39.08;;;;;;;;;;6265228;28;20056;-73
2022/12/23 17:26:59;;;;;;;65.53;39.35;;;;;;;;;;6262709;28;20120;-73
2022/12/23 17:30:00;;;;;;;66.65;39.25;;;;;;;;;;6263638;28;20107;-69
2022/12/23 17:33:02;;;;;;;55.97;37.10;;;;;;;;;;6263567;28;20057;-72
2022/12/23 17:36:04;;;;;;;56.42;37.63;;;;;;;;;;6260945;28;20053;-74
2022/12/23 17:39:06;;;;;;;58.22;38.55;;;;;;;;;;6262526;28;20069;-74
2022/12/23 17:42:14;;;;;;;58.78;38.25;;;;;;;;;;6266789;28;20095;-74
2022/12/23 17:45:24;;;;;;;60.50;38.75;;;;;;;;;;6262559;28;20140;-77
2022/12/23 17:48:25;;;;;;;60.92;39.03;;;;;;;;;;6265099;28;20062;-79
2022/12/23 17:51:27;;;;;;;59.38;37.78;;;;;;;;;;6263748;28;20049;-83
2022/12/23 17:54:29;;;;;;;57.95;38.45;;;;;;;;;;6263661;28;20049;-83
2022/12/23 17:57:32;;;;;;;63.28;38.65;;;;;;;;;;6263943;28;20056;-82
2022/12/23 18:00:34;;;;;;;63.63;38.53;;;;;;;;;;6263054;28;20046;-83
2022/12/23 18:03:35;;;;;;;62.63;38.75;;;;;;;;;;6268600;28;20087;-83
2022/12/23 18:06:37;;;;;;;58.80;36.60;;;;;;;;;;6262225;28;20214;-76
2022/12/23 18:09:39;;;;;;;59.70;38.00;;;;;;;;;;6264182;28;20044;-81
2022/12/23 18:12:45;;;;;;;58.60;37.33;;;;;;;;;;6262336;28;20103;-84
2022/12/23 18:15:47;;;;;;;59.60;36.70;;;;;;;;;;6263297;28;20083;-81
2022/12/23 18:18:48;;;;;;;54.00;34.55;;;;;;;;;;6264291;28;20103;-82
2022/12/23 18:21:50;;;;;;;59.85;35.83;;;;;;;;;;6265064;28;20056;-77
2022/12/23 18:24:52;;;;;;;55.30;34.90;;;;;;;;;;6266810;28;20041;-78